createdAt,value
2024-04-24T00:00:33.563Z,72.25
2024-04-24T00:03:06.834Z,72.16
2024-04-24T00:05:36.462Z,71.98
2024-04-24T00:08:03.906Z,72.00
2024-04-24T00:10:31.136Z,72.72
2024-04-24T00:12:58.146Z,72.99
2024-04-24T00:15:25.194Z,72.84
2024-04-24T00:17:52.334Z,72.68
2024-04-24T00:20:19.793Z,73.38
2024-04-24T00:22:49.026Z,72.86
2024-04-24T00:25:16.106Z,73.17
2024-04-24T00:27:43.198Z,73.39
2024-04-24T00:30:14.483Z,73.38
2024-04-24T00:32:41.920Z,73.92
2024-04-24T00:35:09.086Z,74.02
2024-04-24T00:37:39.145Z,74.12
2024-04-24T00:40:09.269Z,74.23
2024-04-24T00:42:36.353Z,74.35
2024-04-24T00:45:03.598Z,74.66
2024-04-24T00:47:35.852Z,74.70
2024-04-24T00:50:03.407Z,75.23
2024-04-24T00:52:30.858Z,75.41
2024-04-24T00:54:58.624Z,75.57
2024-04-24T00:57:26.216Z,75.67
2024-04-24T00:59:53.622Z,75.58
2024-04-24T01:02:20.832Z,75.83
2024-04-24T01:04:48.575Z,76.34
2024-04-24T01:07:15.805Z,76.86
2024-04-24T01:09:42.795Z,76.83
2024-04-24T01:12:09.910Z,76.60
2024-04-24T01:14:37.073Z,76.61
2024-04-24T01:17:07.035Z,77.04
2024-04-24T01:19:47.459Z,77.12
2024-04-24T01:22:33.130Z,77.14
2024-04-24T01:25:42.368Z,77.27
2024-04-24T01:28:09.434Z,77.51
2024-04-24T01:30:36.424Z,78.05
2024-04-24T01:33:04.179Z,78.73
2024-04-24T01:35:31.618Z,78.44
2024-04-24T01:37:58.590Z,78.42
2024-04-24T01:40:26.020Z,78.79
2024-04-24T01:42:52.972Z,79.09
2024-04-24T01:45:19.977Z,79.31
2024-04-24T01:47:47.177Z,79.15
2024-04-24T01:50:14.476Z,79.26
2024-04-24T01:52:41.485Z,79.20
2024-04-24T01:55:08.746Z,79.29
2024-04-24T01:57:35.746Z,79.30
2024-04-24T02:00:02.735Z,79.48
2024-04-24T02:02:31.618Z,80.00
2024-04-24T02:04:58.864Z,80.07
2024-04-24T02:07:25.863Z,79.91
2024-04-24T02:09:52.850Z,80.16
2024-04-24T02:12:19.931Z,80.13
2024-04-24T02:14:47.041Z,79.92
2024-04-24T02:17:14.122Z,80.11
2024-04-24T02:19:42.648Z,80.17
2024-04-24T02:22:10.780Z,80.30
2024-04-24T02:24:57.363Z,80.35
2024-04-24T02:27:24.350Z,80.67
2024-04-24T02:29:56.132Z,80.58
2024-04-24T02:32:24.235Z,79.95
2024-04-24T02:34:51.437Z,80.09
2024-04-24T02:37:18.554Z,79.88
2024-04-24T02:39:45.709Z,80.42
2024-04-24T02:42:12.694Z,80.28
2024-04-24T02:44:39.645Z,80.33
2024-04-24T02:47:06.826Z,80.43
2024-04-24T02:49:33.839Z,80.64
2024-04-24T02:52:01.163Z,80.76
2024-04-24T02:54:28.514Z,79.64
2024-04-24T02:56:55.520Z,79.51
2024-04-24T02:59:22.759Z,78.98
2024-04-24T03:01:49.857Z,78.75
2024-04-24T03:04:16.905Z,78.74
2024-04-24T03:06:44.777Z,79.01
2024-04-24T03:09:12.861Z,79.10
2024-04-24T03:11:40.177Z,79.31
2024-04-24T03:14:07.951Z,78.83
2024-04-24T03:16:35.408Z,78.58
2024-04-24T03:19:02.674Z,79.05
2024-04-24T03:21:29.774Z,78.42
2024-04-24T03:23:56.816Z,79.06
2024-04-24T03:26:23.989Z,78.85
2024-04-24T03:28:51.162Z,80.33
2024-04-24T03:31:18.353Z,79.29
2024-04-24T03:33:45.452Z,78.53
2024-04-24T03:36:12.708Z,78.66
2024-04-24T03:38:39.780Z,78.82
2024-04-24T03:41:06.850Z,79.07
2024-04-24T03:43:33.877Z,78.39
2024-04-24T03:46:01.614Z,78.30
2024-04-24T03:48:28.686Z,78.18
2024-04-24T03:50:55.777Z,77.87
2024-04-24T03:53:23.970Z,77.96
2024-04-24T03:55:51.933Z,78.01
2024-04-24T03:58:19.078Z,77.82
2024-04-24T04:00:46.647Z,78.03
2024-04-24T04:03:13.862Z,78.35
2024-04-24T04:05:41.056Z,78.12
2024-04-24T04:08:08.217Z,78.17
2024-04-24T04:10:35.306Z,77.85
2024-04-24T04:13:03.435Z,77.82
2024-04-24T04:15:30.546Z,77.95
2024-04-24T04:17:57.936Z,78.48
2024-04-24T04:20:25.199Z,78.25
2024-04-24T04:22:54.768Z,78.57
2024-04-24T04:25:21.912Z,78.43
2024-04-24T04:27:48.929Z,78.49
2024-04-24T04:30:16.514Z,78.28
2024-04-24T04:32:43.854Z,78.18
2024-04-24T04:35:11.020Z,77.11
2024-04-24T04:37:39.553Z,76.47
2024-04-24T04:40:07.732Z,76.28
2024-04-24T04:42:34.925Z,75.62
2024-04-24T04:45:02.146Z,75.17
2024-04-24T04:47:31.973Z,74.58
2024-04-24T04:49:59.157Z,74.25
2024-04-24T04:52:26.349Z,73.17
2024-04-24T04:54:53.569Z,72.35
2024-04-24T04:57:20.663Z,69.75
2024-04-24T04:59:47.776Z,68.41
2024-04-24T05:02:14.894Z,67.65
2024-04-24T05:04:41.963Z,68.06
2024-04-24T05:07:09.221Z,68.03
2024-04-24T05:09:36.891Z,68.39
2024-04-24T05:12:04.242Z,69.19
2024-04-24T05:14:31.458Z,66.99
2024-04-24T05:16:58.722Z,64.39
2024-04-24T05:19:25.852Z,64.29
2024-04-24T05:21:52.976Z,61.51
2024-04-24T05:24:20.050Z,61.89
2024-04-24T05:27:05.442Z,60.75
2024-04-24T05:29:32.526Z,59.80
2024-04-24T05:31:59.640Z,58.53
2024-04-24T05:34:26.744Z,58.03
2024-04-24T05:36:53.842Z,57.92
2024-04-24T05:39:20.968Z,58.28
2024-04-24T05:41:48.049Z,56.92
2024-04-24T05:44:15.193Z,55.47
2024-04-24T05:46:42.228Z,55.54
2024-04-24T05:49:09.361Z,53.27
2024-04-24T05:51:36.430Z,53.05
2024-04-24T05:54:03.423Z,52.55
2024-04-24T05:56:30.532Z,52.48
2024-04-24T05:58:57.682Z,52.39
2024-04-24T06:01:24.694Z,50.21
2024-04-24T06:03:51.771Z,49.66
2024-04-24T06:06:18.806Z,48.29
2024-04-24T06:08:45.875Z,48.58
2024-04-24T06:11:16.222Z,48.46
2024-04-24T06:13:43.605Z,49.09
2024-04-24T06:16:10.709Z,48.72
2024-04-24T06:18:38.043Z,49.14
2024-04-24T06:21:05.479Z,49.57
2024-04-24T06:23:32.628Z,49.46
2024-04-24T06:25:59.711Z,48.97
2024-04-24T06:28:26.765Z,49.19
2024-04-24T06:30:53.827Z,49.10
2024-04-24T06:33:20.932Z,49.26
2024-04-24T06:35:48.016Z,49.50
2024-04-24T06:38:15.132Z,49.25
2024-04-24T06:40:42.425Z,49.69
2024-04-24T06:43:10.335Z,49.79
2024-04-24T06:45:38.220Z,49.81
2024-04-24T06:48:06.545Z,49.52
2024-04-24T06:50:33.957Z,48.73
2024-04-24T06:53:01.194Z,48.37
2024-04-24T06:55:28.358Z,49.20
2024-04-24T06:57:58.476Z,48.85
2024-04-24T07:00:28.845Z,48.93
2024-04-24T07:02:55.890Z,48.80
2024-04-24T07:05:23.364Z,48.92
2024-04-24T07:07:50.483Z,48.37
2024-04-24T07:10:17.600Z,48.46
2024-04-24T07:12:46.742Z,48.02
2024-04-24T07:15:15.647Z,48.02
2024-04-24T07:17:44.561Z,47.58
2024-04-24T07:20:11.963Z,47.31
2024-04-24T07:22:39.200Z,47.25
2024-04-24T07:25:06.331Z,47.18
2024-04-24T07:27:34.031Z,47.38
2024-04-24T07:30:01.154Z,47.35
2024-04-24T07:32:28.444Z,47.34
2024-04-24T07:34:55.767Z,46.82
2024-04-24T07:37:22.903Z,47.00
2024-04-24T07:39:50.003Z,46.41
2024-04-24T07:42:17.408Z,47.00
2024-04-24T07:44:44.861Z,46.88
2024-04-24T07:47:12.572Z,46.76
2024-04-24T07:49:39.736Z,46.47
2024-04-24T07:52:06.813Z,45.95
2024-04-24T07:54:33.782Z,46.39
2024-04-24T07:57:00.755Z,46.67
2024-04-24T07:59:27.899Z,47.08
2024-04-24T08:05:45.913Z,45.32
2024-04-24T08:08:13.739Z,45.49
2024-04-24T08:10:40.777Z,45.44
2024-04-24T08:13:07.826Z,44.83
2024-04-24T08:15:34.783Z,45.37
2024-04-24T08:18:01.888Z,45.78
2024-04-24T08:20:29.029Z,45.68
2024-04-24T08:22:56.113Z,45.05
2024-04-24T08:25:23.536Z,44.94
2024-04-24T08:27:52.108Z,44.57
2024-04-24T08:30:19.292Z,45.46
2024-04-24T08:32:46.373Z,45.05
2024-04-24T08:35:13.616Z,44.39
2024-04-24T08:37:40.640Z,44.57
2024-04-24T08:40:08.153Z,44.49
2024-04-24T08:42:35.411Z,44.55
2024-04-24T08:45:02.560Z,44.24
2024-04-24T08:47:32.759Z,42.71
2024-04-24T08:50:00.446Z,43.05
2024-04-24T08:52:28.069Z,42.69
2024-04-24T08:54:59.068Z,42.25
2024-04-24T08:57:27.917Z,42.28
2024-04-24T09:00:01.100Z,41.95
2024-04-24T09:02:34.086Z,42.06
2024-04-24T09:05:04.846Z,42.44
2024-04-24T09:07:33.886Z,42.52
2024-04-24T09:10:02.638Z,42.03
2024-04-24T09:12:32.993Z,42.19
2024-04-24T09:15:00.293Z,42.61
2024-04-24T09:17:27.600Z,41.79
2024-04-24T09:19:54.644Z,41.36
2024-04-24T09:22:21.759Z,41.94
2024-04-24T09:24:56.791Z,41.80
2024-04-24T09:27:24.973Z,41.34
2024-04-24T09:29:52.055Z,41.15
2024-04-24T09:32:19.085Z,41.70
2024-04-24T09:34:48.283Z,41.33
2024-04-24T09:37:19.824Z,41.30
2024-04-24T09:39:48.460Z,40.87
2024-04-24T09:42:15.667Z,40.64
2024-04-24T09:44:47.105Z,40.09
2024-04-24T09:47:14.428Z,40.66
2024-04-24T09:49:50.181Z,40.66
2024-04-24T09:52:17.322Z,40.35
2024-04-24T09:54:46.733Z,40.28
2024-04-24T09:57:15.197Z,39.93
2024-04-24T09:59:55.334Z,38.90
2024-04-24T10:02:26.983Z,38.26
2024-04-24T10:04:58.050Z,39.40
2024-04-24T10:07:26.986Z,38.80
2024-04-24T10:09:54.888Z,38.13
2024-04-24T10:12:33.991Z,38.13
2024-04-24T10:15:13.143Z,38.91
2024-04-24T10:17:41.363Z,36.20
2024-04-24T10:20:19.112Z,33.85
2024-04-24T10:22:51.565Z,32.22
2024-04-24T10:25:21.803Z,31.59
2024-04-24T10:27:51.699Z,29.74
2024-04-24T10:30:21.756Z,28.72
2024-04-24T10:32:48.994Z,27.97
2024-04-24T10:35:17.264Z,27.16
2024-04-24T10:37:48.431Z,27.24
2024-04-24T10:40:18.092Z,26.82
2024-04-24T10:42:45.685Z,25.97
2024-04-24T10:45:19.381Z,25.17
2024-04-24T10:47:49.002Z,24.65
2024-04-24T10:50:17.163Z,24.58
2024-04-24T10:52:53.719Z,25.31
2024-04-24T10:55:21.094Z,24.49
2024-04-24T10:57:52.792Z,23.74
2024-04-24T11:00:22.059Z,23.58
2024-04-24T11:03:00.583Z,23.91
2024-04-24T11:05:36.571Z,23.78
2024-04-24T11:08:06.243Z,23.62
2024-04-24T11:10:34.495Z,24.21
2024-04-24T11:13:04.120Z,24.63
2024-04-24T11:15:31.326Z,24.93
2024-04-24T11:17:58.634Z,25.08
2024-04-24T11:20:26.316Z,23.78
2024-04-24T11:22:53.379Z,23.73
2024-04-24T11:25:20.490Z,23.13
2024-04-24T11:27:48.128Z,22.72
2024-04-24T11:30:17.175Z,22.69
2024-04-24T11:32:48.463Z,22.42
2024-04-24T11:35:17.512Z,22.31
2024-04-24T11:37:46.354Z,22.39
2024-04-24T11:40:13.509Z,21.50
2024-04-24T11:42:44.281Z,21.31
2024-04-24T11:45:12.950Z,20.95
2024-04-24T11:47:41.509Z,21.37
2024-04-24T11:50:09.084Z,21.91
2024-04-24T11:52:41.409Z,21.94
2024-04-24T11:55:09.158Z,22.97
2024-04-24T11:57:37.493Z,23.85
2024-04-24T12:00:06.635Z,24.07
2024-04-24T12:02:35.643Z,23.81
2024-04-24T12:05:07.563Z,24.45
2024-04-24T12:07:34.893Z,24.68
2024-04-24T12:10:02.546Z,25.26
2024-04-24T12:12:32.417Z,25.88
2024-04-24T12:14:59.969Z,25.65
2024-04-24T12:17:27.031Z,25.67
2024-04-24T12:19:54.211Z,25.63
2024-04-24T12:22:21.513Z,25.19
2024-04-24T12:24:48.638Z,24.14
2024-04-24T12:27:16.338Z,24.12
2024-04-24T12:29:45.151Z,23.63
2024-04-24T12:32:12.392Z,23.83
2024-04-24T12:34:39.632Z,24.06
2024-04-24T12:37:06.755Z,24.57
2024-04-24T12:39:33.833Z,25.18
2024-04-24T12:42:01.063Z,25.77
2024-04-24T12:44:28.171Z,26.19
2024-04-24T12:46:55.304Z,26.87
2024-04-24T12:49:22.297Z,26.29
2024-04-24T12:51:49.371Z,25.89
2024-04-24T12:54:16.538Z,25.86
2024-04-24T12:56:43.850Z,26.06
2024-04-24T12:59:10.900Z,25.98
2024-04-24T13:01:38.063Z,26.11
2024-04-24T13:04:05.227Z,26.05
2024-04-24T13:06:34.583Z,26.55
2024-04-24T13:09:01.965Z,26.11
2024-04-24T13:11:29.410Z,25.99
2024-04-24T13:13:56.916Z,25.97
2024-04-24T13:16:24.749Z,26.15
2024-04-24T13:18:52.034Z,26.49
2024-04-24T13:21:19.821Z,25.47
2024-04-24T13:23:46.764Z,25.35
2024-04-24T13:26:13.910Z,25.18
2024-04-24T13:28:40.922Z,25.01
2024-04-24T13:31:08.185Z,25.95
2024-04-24T13:33:35.542Z,26.07
2024-04-24T13:36:02.813Z,26.17
2024-04-24T13:38:29.909Z,26.78
2024-04-24T13:41:04.493Z,27.80
2024-04-24T13:43:31.502Z,28.33
2024-04-24T13:45:58.488Z,29.15
2024-04-24T13:48:27.335Z,29.67
2024-04-24T13:50:55.880Z,29.71
2024-04-24T13:53:22.921Z,29.91
2024-04-24T13:55:50.560Z,30.70
2024-04-24T13:58:17.655Z,30.72
2024-04-24T14:00:44.823Z,31.07
2024-04-24T14:03:12.008Z,31.67
2024-04-24T14:05:41.052Z,30.89
2024-04-24T14:08:08.710Z,30.35
2024-04-24T14:10:35.850Z,30.21
2024-04-24T14:13:03.036Z,29.19
2024-04-24T14:15:30.221Z,29.24
2024-04-24T14:17:57.673Z,29.65
2024-04-24T14:20:24.775Z,29.68
2024-04-24T14:22:51.829Z,28.01
2024-04-24T14:25:18.996Z,28.03
2024-04-24T14:27:46.628Z,27.98
2024-04-24T14:30:13.840Z,28.10
2024-04-24T14:32:41.100Z,28.36
2024-04-24T14:35:08.568Z,28.17
2024-04-24T14:37:35.813Z,27.77
2024-04-24T14:40:03.844Z,28.56
2024-04-24T14:42:31.822Z,29.53
2024-04-24T14:44:58.799Z,29.83
2024-04-24T14:47:26.360Z,30.40
2024-04-24T14:49:53.509Z,31.50
2024-04-24T14:52:21.435Z,32.34
2024-04-24T14:54:49.305Z,32.22
2024-04-24T14:57:16.624Z,32.74
2024-04-24T14:59:44.470Z,33.27
2024-04-24T15:02:28.102Z,33.71
2024-04-24T15:04:55.065Z,33.82
2024-04-24T15:07:22.209Z,34.07
2024-04-24T15:09:49.186Z,34.36
2024-04-24T15:12:16.423Z,34.74
2024-04-24T15:14:43.570Z,35.49
2024-04-24T15:17:10.599Z,35.15
2024-04-24T15:19:39.526Z,35.27
2024-04-24T15:22:08.107Z,35.94
2024-04-24T15:24:35.956Z,36.04
2024-04-24T15:27:02.948Z,36.08
2024-04-24T15:29:30.007Z,36.36
2024-04-24T15:31:57.106Z,36.86
2024-04-24T15:34:25.193Z,36.91
2024-04-24T15:36:52.817Z,37.09
2024-04-24T15:39:19.792Z,37.31
2024-04-24T15:41:46.842Z,37.33
2024-04-24T15:44:14.457Z,37.19
2024-04-24T15:46:41.494Z,37.50
2024-04-24T15:49:08.526Z,37.68
2024-04-24T15:51:35.530Z,37.72
2024-04-24T15:54:03.310Z,38.10
2024-04-24T15:56:30.386Z,37.94
2024-04-24T15:58:57.646Z,38.37
2024-04-24T16:01:25.408Z,38.46
2024-04-24T16:03:52.451Z,38.69
2024-04-24T16:06:19.835Z,38.98
2024-04-24T16:08:46.992Z,39.32
2024-04-24T16:11:14.162Z,38.79
2024-04-24T16:13:41.416Z,38.98
2024-04-24T16:16:08.534Z,39.47
2024-04-24T16:18:42.619Z,39.75
2024-04-24T16:21:13.130Z,39.51
2024-04-24T16:23:41.444Z,40.52
2024-04-24T16:26:09.088Z,40.85
2024-04-24T16:28:36.864Z,40.95
2024-04-24T16:31:04.036Z,40.89
2024-04-24T16:33:31.215Z,40.77
2024-04-24T16:35:59.815Z,41.00
2024-04-24T16:38:27.013Z,41.15
2024-04-24T16:40:54.080Z,41.50
2024-04-24T16:43:21.076Z,41.47
2024-04-24T16:45:48.114Z,42.29
2024-04-24T16:48:16.347Z,42.17
2024-04-24T16:50:43.613Z,42.18
2024-04-24T16:53:10.732Z,42.67
2024-04-24T16:55:37.755Z,43.11
2024-04-24T16:58:05.009Z,43.19
2024-04-24T17:00:32.455Z,43.09
2024-04-24T17:02:59.840Z,43.71
2024-04-24T17:05:27.024Z,43.81
2024-04-24T17:07:54.060Z,44.33
2024-04-24T17:10:21.144Z,44.53
2024-04-24T17:12:48.408Z,44.97
2024-04-24T17:15:15.482Z,45.12
2024-04-24T17:17:42.713Z,45.82
2024-04-24T17:20:10.147Z,45.39
2024-04-24T17:22:37.232Z,46.21
2024-04-24T17:25:04.899Z,45.82
2024-04-24T17:27:31.956Z,46.16
2024-04-24T17:29:59.232Z,46.44
2024-04-24T17:32:29.218Z,46.90
2024-04-24T17:34:56.347Z,47.05
2024-04-24T17:37:23.491Z,47.75
2024-04-24T17:39:50.459Z,47.62
2024-04-24T17:42:17.438Z,48.06
2024-04-24T17:44:44.554Z,47.83
2024-04-24T17:47:12.023Z,47.66
2024-04-24T17:49:39.181Z,48.32
2024-04-24T17:52:06.497Z,48.75
2024-04-24T17:54:35.494Z,48.95
2024-04-24T17:57:02.633Z,48.94
2024-04-24T17:59:29.765Z,49.20
2024-04-24T18:01:56.857Z,49.03
2024-04-24T18:04:23.872Z,49.13
2024-04-24T18:06:50.845Z,50.05
2024-04-24T18:09:18.315Z,49.63
2024-04-24T18:11:45.458Z,49.88
2024-04-24T18:14:12.568Z,50.30
2024-04-24T18:16:39.583Z,50.49
2024-04-24T18:19:06.908Z,50.48
2024-04-24T18:21:33.916Z,50.84
2024-04-24T18:24:01.311Z,50.66
2024-04-24T18:26:28.634Z,51.02
2024-04-24T18:28:55.622Z,51.02
2024-04-24T18:31:22.705Z,51.31
2024-04-24T18:33:49.817Z,51.50
2024-04-24T18:36:16.897Z,51.51
2024-04-24T18:38:44.017Z,51.79
2024-04-24T18:41:12.728Z,51.95
2024-04-24T18:43:42.982Z,52.07
2024-04-24T18:46:10.721Z,52.14
2024-04-24T18:48:37.821Z,52.27
2024-04-24T18:51:05.103Z,52.25
2024-04-24T18:53:37.652Z,52.32
2024-04-24T18:56:07.943Z,52.76
2024-04-24T18:58:35.109Z,52.67
2024-04-24T19:01:02.550Z,52.66
2024-04-24T19:03:29.764Z,53.14
2024-04-24T19:05:56.813Z,53.18
2024-04-24T19:08:23.924Z,53.00
2024-04-24T19:10:56.488Z,53.29
2024-04-24T19:13:24.933Z,53.75
2024-04-24T19:15:52.239Z,53.51
2024-04-24T19:18:21.326Z,53.53
2024-04-24T19:20:48.439Z,54.06
2024-04-24T19:23:15.474Z,53.33
2024-04-24T19:25:42.550Z,53.12
2024-04-24T19:28:12.945Z,53.74
2024-04-24T19:30:40.323Z,53.49
2024-04-24T19:33:09.895Z,53.23
2024-04-24T19:35:37.394Z,53.23
2024-04-24T19:38:04.874Z,53.62
2024-04-24T19:40:34.535Z,53.30
2024-04-24T19:43:03.206Z,53.60
2024-04-24T19:45:31.039Z,53.22
2024-04-24T19:47:58.137Z,53.16
2024-04-24T19:50:25.272Z,53.44
2024-04-24T19:52:52.478Z,53.74
2024-04-24T19:55:19.478Z,53.32
2024-04-24T19:57:46.522Z,53.43
2024-04-24T20:00:14.078Z,53.30
2024-04-24T20:02:44.388Z,53.22
2024-04-24T20:05:11.506Z,53.45
2024-04-24T20:07:42.391Z,53.79
2024-04-24T20:10:12.115Z,53.45
2024-04-24T20:12:39.101Z,53.16
2024-04-24T20:15:10.004Z,52.89
2024-04-24T20:17:37.302Z,53.16
2024-04-24T20:20:05.340Z,53.12
2024-04-24T20:22:35.698Z,52.49
2024-04-24T20:25:02.889Z,52.74
2024-04-24T20:27:30.847Z,52.72
2024-04-24T20:30:01.764Z,52.25
2024-04-24T20:32:32.308Z,52.92
2024-04-24T20:34:59.630Z,52.78
2024-04-24T20:37:26.669Z,53.00
2024-04-24T20:39:53.712Z,52.92
2024-04-24T20:42:20.750Z,52.14
2024-04-24T20:44:47.750Z,52.34
2024-04-24T20:47:14.917Z,52.47
2024-04-24T20:49:42.053Z,52.71
2024-04-24T20:52:09.262Z,52.47
2024-04-24T20:54:38.003Z,52.20
2024-04-24T20:57:05.081Z,51.97
2024-04-24T20:59:32.220Z,52.32
2024-04-24T21:01:59.229Z,53.11
2024-04-24T21:04:26.289Z,52.51
2024-04-24T21:06:53.365Z,52.90
2024-04-24T21:09:20.414Z,52.91
2024-04-24T21:11:47.525Z,52.96
2024-04-24T21:14:14.630Z,52.87
2024-04-24T21:16:41.833Z,53.38
2024-04-24T21:19:09.622Z,53.62
2024-04-24T21:21:36.794Z,53.36
2024-04-24T21:24:03.951Z,54.18
2024-04-24T21:26:32.378Z,54.30
2024-04-24T21:28:59.472Z,54.16
2024-04-24T21:31:26.556Z,54.92
2024-04-24T21:33:53.750Z,55.57
2024-04-24T21:36:20.820Z,55.10
2024-04-24T21:38:47.988Z,55.39
2024-04-24T21:41:23.031Z,55.90
2024-04-24T21:43:51.160Z,55.48
2024-04-24T21:46:21.512Z,56.18
2024-04-24T21:48:48.715Z,56.27
2024-04-24T21:51:15.884Z,56.30
2024-04-24T21:53:42.952Z,56.55
2024-04-24T21:56:10.316Z,56.65
2024-04-24T21:58:37.380Z,56.76
2024-04-24T22:01:04.708Z,56.74
2024-04-24T22:03:33.397Z,57.24
2024-04-24T22:06:02.289Z,58.23
2024-04-24T22:08:29.339Z,58.47
2024-04-24T22:10:56.359Z,58.62
2024-04-24T22:13:23.424Z,59.03
2024-04-24T22:15:50.478Z,59.88
2024-04-24T22:18:17.732Z,59.81
2024-04-24T22:20:44.783Z,60.55
2024-04-24T22:23:12.024Z,60.80
2024-04-24T22:25:39.099Z,61.90
2024-04-24T22:28:06.510Z,62.14
2024-04-24T22:30:33.539Z,63.48
2024-04-24T22:33:00.625Z,63.93
2024-04-24T22:35:28.762Z,63.23
2024-04-24T22:37:55.828Z,64.26
2024-04-24T22:40:22.777Z,64.67
2024-04-24T22:42:49.849Z,65.57
2024-04-24T22:45:16.918Z,67.47
2024-04-24T22:47:44.931Z,67.68
2024-04-24T22:50:12.109Z,67.88
2024-04-24T22:52:39.207Z,69.08
2024-04-24T22:55:06.316Z,68.62
2024-04-24T22:57:33.313Z,68.49
2024-04-24T23:00:00.437Z,68.97
2024-04-24T23:02:27.741Z,69.29
2024-04-24T23:04:54.979Z,68.12
2024-04-24T23:07:22.061Z,68.54
2024-04-24T23:09:49.163Z,68.70
2024-04-24T23:12:16.173Z,68.44
2024-04-24T23:14:43.293Z,67.63
2024-04-24T23:17:10.463Z,67.68
2024-04-24T23:19:38.177Z,67.72
2024-04-24T23:22:05.212Z,67.60
2024-04-24T23:24:32.180Z,66.99
2024-04-24T23:26:59.681Z,66.79
2024-04-24T23:29:27.375Z,66.77
2024-04-24T23:31:54.339Z,66.67
2024-04-24T23:34:21.374Z,66.07
2024-04-24T23:36:49.147Z,66.31
2024-04-24T23:39:16.165Z,66.32
2024-04-24T23:41:43.177Z,65.91
2024-04-24T23:44:10.133Z,66.14
2024-04-24T23:46:37.278Z,66.20
2024-04-24T23:49:04.818Z,66.38
2024-04-24T23:51:32.687Z,66.81
2024-04-24T23:53:59.719Z,67.03
2024-04-24T23:56:26.736Z,66.35
2024-04-24T23:58:53.788Z,67.14
